Time;durP1;ratioP1;P1;durP2;ratioP2;P2;SDS_P1;SDS_P2;PMS_P1;PMS_P2;Temp;Humidity;BMP_temperature;BMP_pressure;BME280_temperature;BME280_humidity;BME280_pressure;Samples;Min_cycle;Max_cycle;Signal;HPM_P1;HPM_P2
2022/01/25 00:31:17;;;;;;;;;92.00;67.00;;;;;1.88;80.70;103043.06;4997428;28;45446;-65
2022/01/25 00:33:49;;;;;;;;;88.25;65.00;;;;;1.85;80.78;103029.72;5020738;28;45600;-65
2022/01/25 00:36:17;;;;;;;;;80.75;62.00;;;;;1.85;80.38;103040.44;5018118;28;45477;-65
2022/01/25 00:38:43;;;;;;;;;83.50;64.75;;;;;1.81;80.31;103042.34;5021100;28;45330;-64
2022/01/25 00:41:09;;;;;;;;;84.00;65.25;;;;;1.81;80.31;103036.97;5017574;28;46313;-65
2022/01/25 00:43:35;;;;;;;;;84.00;64.25;;;;;1.84;80.59;103044.03;5020180;28;45199;-65
2022/01/25 00:46:05;;;;;;;;;87.75;66.50;;;;;1.85;80.75;103040.44;5012995;28;45268;-65
2022/01/25 00:48:59;;;;;;;;;94.75;70.75;;;;;1.76;80.02;103037.97;5020337;28;45686;-65
2022/01/25 00:54:25;;;;;;;;;93.00;70.00;;;;;1.63;81.26;103036.50;5020227;28;45485;-66
2022/01/25 00:56:48;;;;;;;;;85.00;65.00;;;;;1.59;81.47;103034.81;5019043;28;45280;-65
2022/01/25 00:59:16;;;;;;;;;94.25;70.75;;;;;1.55;81.44;103026.84;5019249;28;45904;-65
2022/01/25 01:01:43;;;;;;;;;88.50;67.00;;;;;1.43;81.65;103019.09;5020306;28;45347;-65
2022/01/25 01:04:08;;;;;;;;;86.75;65.75;;;;;1.54;81.55;103030.44;5019836;28;45478;-65
2022/01/25 01:06:34;;;;;;;;;87.50;68.00;;;;;1.51;81.64;103032.31;5021298;28;45411;-64
2022/01/25 01:09:00;;;;;;;;;72.50;56.75;;;;;1.48;81.49;103027.91;5019191;28;45402;-65
2022/01/25 01:11:39;;;;;;;;;93.25;69.25;;;;;1.45;81.07;103024.44;5012883;28;47013;-65
2022/01/25 01:14:26;;;;;;;;;92.25;72.00;;;;;1.39;81.81;103027.25;5023213;28;45477;-65
2022/01/25 01:41:57;;;;;;;;;89.25;69.50;;;;;1.43;82.20;103039.66;5023763;28;45631;-65
2022/01/25 01:43:40;;;;;;;;;96.50;70.50;;;;;1.39;82.26;103033.47;5009475;28;45447;-65
2022/01/25 01:48:57;;;;;;;;;93.50;70.75;;;;;1.39;82.07;103033.47;5011075;28;45289;-65
2022/01/25 01:51:28;;;;;;;;;97.75;72.50;;;;;1.38;82.00;103031.72;5018927;28;45351;-65
2022/01/25 01:54:00;;;;;;;;;101.25;72.00;;;;;1.38;81.91;103042.44;5037479;28;46409;-65
2022/01/25 01:56:26;;;;;;;;;92.00;70.75;;;;;1.36;81.17;103051.41;5022091;28;45403;-65
2022/01/25 01:58:55;;;;;;;;;92.75;69.25;;;;;1.33;81.29;103043.44;5022881;28;45423;-65
2022/01/25 02:01:21;;;;;;;;;95.75;69.50;;;;;1.33;81.16;103046.09;5022656;28;45423;-65
2022/01/25 02:03:46;;;;;;;;;97.00;71.75;;;;;1.29;81.41;103047.97;5022639;28;45346;-65
2022/01/25 02:06:12;;;;;;;;;84.50;63.50;;;;;1.31;81.50;103048.84;5024125;28;45433;-65
2022/01/25 02:08:38;;;;;;;;;87.50;65.00;;;;;1.26;81.07;103041.81;5023980;28;45513;-66
2022/01/25 02:11:05;;;;;;;;;85.25;66.75;;;;;1.28;81.22;103045.34;5016177;28;45344;-65
2022/01/25 02:13:30;;;;;;;;;96.75;71.50;;;;;1.29;81.86;103049.78;5024593;28;45339;-65
2022/01/25 02:15:58;;;;;;;;;99.25;73.75;;;;;1.26;81.70;103042.69;5015919;28;45478;-65
2022/01/25 02:23:36;;;;;;;;;97.00;71.00;;;;;1.23;81.58;103042.78;5022496;28;45281;-65
2022/01/25 02:26:04;;;;;;;;;104.00;71.75;;;;;1.26;82.34;103041.81;5018183;28;45318;-65
2022/01/25 02:28:33;;;;;;;;;92.75;71.25;;;;;1.26;81.83;103039.13;5024423;28;45221;-65
2022/01/25 02:31:00;;;;;;;;;91.00;68.00;;;;;1.24;81.73;103038.28;5018483;28;45398;-65
2022/01/25 02:33:25;;;;;;;;;95.00;70.75;;;;;1.25;81.22;103051.63;5039605;28;47940;-65
2022/01/25 02:35:51;;;;;;;;;90.75;66.50;;;;;1.22;81.60;103043.69;5017362;28;45260;-65
2022/01/25 02:38:35;;;;;;;;;89.00;68.50;;;;;1.22;81.54;103054.38;5024330;28;45301;-65
2022/01/25 02:41:01;;;;;;;;;92.25;69.25;;;;;1.23;81.63;103056.16;5019295;28;45563;-65
2022/01/25 02:43:28;;;;;;;;;89.50;68.75;;;;;1.21;81.70;103049.06;5024009;28;45458;-65
2022/01/25 02:48:53;;;;;;;;;98.75;70.75;;;;;1.15;81.38;103048.28;5022890;28;45235;-65
2022/01/25 02:51:27;;;;;;;;;86.50;68.00;;;;;1.14;81.44;103045.63;5017071;28;45494;-65
2022/01/25 02:53:53;;;;;;;;;94.00;68.50;;;;;1.19;82.07;103051.75;5021829;28;46442;-65
2022/01/25 02:56:19;;;;;;;;;87.00;64.00;;;;;1.19;81.86;103046.41;5020770;28;45680;-65
2022/01/25 02:58:45;;;;;;;;;94.25;70.25;;;;;1.22;82.06;103050.81;5022210;28;45374;-65
2022/01/25 03:01:12;;;;;;;;;84.75;65.25;;;;;1.18;81.94;103041.97;5020928;28;45580;-65
2022/01/25 03:03:38;;;;;;;;;100.00;74.50;;;;;1.21;82.38;103049.06;5038043;28;47165;-65
2022/01/25 03:06:04;;;;;;;;;100.50;72.25;;;;;1.21;82.34;103044.59;5022036;28;45385;-65
2022/01/25 03:08:30;;;;;;;;;89.75;68.50;;;;;1.26;82.61;103048.03;5023895;28;45282;-65
2022/01/25 03:10:56;;;;;;;;;95.50;70.50;;;;;1.30;82.01;103056.91;5014625;28;45640;-65
2022/01/25 03:13:27;;;;;;;;;90.00;67.50;;;;;1.28;82.39;103050.69;5045043;28;46975;-65
2022/01/25 03:15:58;;;;;;;;;94.25;72.50;;;;;1.28;82.32;103059.59;5016920;28;45499;-65
2022/01/25 03:21:15;;;;;;;;;96.00;74.25;;;;;1.32;82.36;103055.94;5015844;28;45492;-65
2022/01/25 03:23:40;;;;;;;;;93.00;71.50;;;;;1.31;82.09;103048.84;5021921;28;46716;-65
2022/01/25 03:26:06;;;;;;;;;100.50;73.75;;;;;1.30;82.29;103046.19;5017816;28;45382;-65
2022/01/25 03:28:31;;;;;;;;;95.50;68.75;;;;;1.27;82.42;103024.81;5023276;28;45347;-65
2022/01/25 03:30:57;;;;;;;;;91.25;67.50;;;;;1.32;82.34;103034.50;5017155;28;45379;-65
2022/01/25 03:33:22;;;;;;;;;84.25;66.75;;;;;1.33;81.68;103027.34;5023287;28;45382;-65
2022/01/25 03:35:47;;;;;;;;;85.00;66.00;;;;;1.32;81.63;103023.78;5016572;28;45436;-65
2022/01/25 03:38:13;;;;;;;;;89.50;67.00;;;;;1.32;81.13;103018.44;5023318;28;45339;-65
2022/01/25 03:40:38;;;;;;;;;94.00;69.25;;;;;1.28;81.13;103016.75;5017110;28;45429;-66
2022/01/25 03:43:06;;;;;;;;;69.75;55.75;;;;;1.25;80.59;103013.25;5023046;28;46087;-65
2022/01/25 03:45:34;;;;;;;;;73.25;55.00;;;;;1.25;80.92;103024.84;5017089;28;45405;-65
2022/01/25 03:50:42;;;;;;;;;72.25;57.50;;;;;1.22;80.72;103016.91;5018788;28;45376;-65
2022/01/25 03:53:08;;;;;;;;;63.75;51.25;;;;;1.20;80.59;103024.06;5015867;28;47179;-65
2022/01/25 03:55:34;;;;;;;;;71.00;55.00;;;;;1.14;80.48;103017.06;5016143;28;45455;-65
2022/01/25 03:57:59;;;;;;;;;55.75;41.75;;;;;1.04;80.85;103015.50;5016439;28;45346;-65
2022/01/25 04:00:25;;;;;;;;;70.50;53.75;;;;;0.99;80.97;103028.09;5016523;28;45383;-65
2022/01/25 04:03:03;;;;;;;;;68.50;55.00;;;;;0.99;81.44;103024.53;5022480;28;46814;-65
2022/01/25 04:08:06;;;;;;;;;68.50;49.50;;;;;0.95;81.60;103028.19;5022919;28;45252;-65
2022/01/25 04:10:32;;;;;;;;;65.75;48.75;;;;;0.97;81.78;103029.03;5016788;28;45476;-65
2022/01/25 04:12:57;;;;;;;;;67.25;50.50;;;;;1.04;81.66;103042.25;5022663;28;45561;-65
2022/01/25 04:15:23;;;;;;;;;66.25;51.00;;;;;1.06;81.99;103040.44;5013690;28;48224;-65
2022/01/25 04:17:56;;;;;;;;;77.00;56.50;;;;;1.07;82.18;103038.66;5022300;28;45376;-65
2022/01/25 04:20:26;;;;;;;;;75.25;58.25;;;;;1.13;82.26;103036.72;5016691;28;45311;-65
2022/01/25 04:25:35;;;;;;;;;90.50;66.75;;;;;1.23;82.66;103040.09;5015229;28;45382;-65
2022/01/25 04:28:01;;;;;;;;;92.75;72.75;;;;;1.17;82.91;103033.03;5022477;28;45415;-65
2022/01/25 04:30:26;;;;;;;;;89.50;70.75;;;;;1.18;83.20;103041.97;5014957;28;45799;-65
2022/01/25 04:33:00;;;;;;;;;94.25;72.50;;;;;1.27;82.90;103039.09;5022387;28;45539;-65
2022/01/25 04:35:42;;;;;;;;;89.25;69.50;;;;;1.29;83.00;103042.63;5015690;28;45545;-65
2022/01/25 04:49:15;;;;;;;;;92.75;67.75;;;;;1.29;83.12;103057.81;5023773;28;45399;-65
2022/01/25 04:55:07;;;;;;;;;81.50;65.00;;;;;1.27;83.03;103055.16;4998965;28;45566;-65
2022/01/25 04:57:51;;;;;;;;;92.25;68.75;;;;;1.27;83.12;103046.25;5018538;28;46116;-65
2022/01/25 05:00:22;;;;;;;;;94.50;70.25;;;;;1.24;83.01;103049.91;5026556;28;45244;-66
2022/01/25 05:02:53;;;;;;;;;102.00;69.75;;;;;1.23;83.47;103053.47;5039833;28;45661;-65
2022/01/25 05:05:32;;;;;;;;;95.50;68.25;;;;;1.26;83.57;103061.44;5023328;28;45476;-66
2022/01/25 05:10:28;;;;;;;;;93.25;69.75;;;;;1.15;83.27;103048.28;5016873;28;45257;-66
2022/01/25 05:13:11;;;;;;;;;94.00;70.50;;;;;1.13;83.99;103054.56;5020064;28;45430;-65
2022/01/25 05:18:16;;;;;;;;;94.75;72.00;;;;;1.11;83.97;103053.72;5014944;28;45331;-65
2022/01/25 05:23:26;;;;;;;;;89.75;66.00;;;;;1.04;84.12;103046.72;5025694;28;45303;-66
2022/01/25 05:25:52;;;;;;;;;90.50;69.50;;;;;1.02;84.33;103056.59;5017357;28;45461;-66
2022/01/25 05:28:17;;;;;;;;;89.00;68.25;;;;;1.04;84.37;103052.97;5025036;28;45374;-66
2022/01/25 05:30:43;;;;;;;;;85.75;65.50;;;;;1.03;84.40;103050.31;5019990;28;45422;-66
2022/01/25 05:33:08;;;;;;;;;92.25;68.50;;;;;1.02;84.37;103053.94;5025600;28;45394;-66
2022/01/25 05:35:34;;;;;;;;;88.25;68.00;;;;;0.98;84.69;103057.56;5018290;28;45403;-66
2022/01/25 05:38:00;;;;;;;;;81.50;65.25;;;;;1.01;85.08;103061.06;5040233;28;45588;-66
2022/01/25 05:46:20;;;;;;;;;87.00;67.50;;;;;0.99;85.04;103057.53;5018544;28;45313;-66
2022/01/25 05:48:27;;;;;;;;;95.00;68.25;;;;;1.04;84.70;103063.66;5021214;28;45311;-66
2022/01/25 05:50:53;;;;;;;;;88.50;65.75;;;;;1.05;84.39;103064.56;5018776;28;45360;-66
2022/01/25 05:53:20;;;;;;;;;88.50;66.00;;;;;1.01;84.82;103068.22;5023819;28;45504;-66
2022/01/25 05:55:45;;;;;;;;;94.75;74.00;;;;;0.92;85.47;103060.38;5020260;28;45503;-66
2022/01/25 05:58:10;;;;;;;;;94.75;68.75;;;;;0.91;85.35;103066.63;5021720;28;45311;-65
2022/01/25 06:00:36;;;;;;;;;102.25;75.25;;;;;0.99;85.64;103064.69;5020290;28;45229;-66
2022/01/25 06:03:04;;;;;;;;;91.75;64.25;;;;;0.99;85.76;103062.88;5023944;28;45529;-66
2022/01/25 06:05:30;;;;;;;;;94.25;73.25;;;;;0.93;85.54;103060.34;5015074;28;46201;-66
2022/01/25 06:07:55;;;;;;;;;100.75;72.00;;;;;1.04;85.69;103057.44;5022337;28;45474;-66
2022/01/25 06:10:20;;;;;;;;;93.00;68.25;;;;;1.03;85.47;103053.88;5016562;28;45219;-66
2022/01/25 06:12:46;;;;;;;;;92.50;69.50;;;;;1.07;85.58;103044.00;5021359;28;45634;-65
2022/01/25 06:15:12;;;;;;;;;88.00;66.50;;;;;1.15;85.08;103061.66;5017797;28;45668;-66
2022/01/25 06:17:38;;;;;;;;;92.50;70.25;;;;;1.11;85.16;103059.06;5023803;28;45390;-66
2022/01/25 06:20:04;;;;;;;;;91.50;69.75;;;;;1.16;85.14;103067.91;5017887;28;45410;-65
2022/01/25 06:22:30;;;;;;;;;96.50;71.50;;;;;1.01;85.12;103047.69;5024078;28;45525;-66
2022/01/25 06:24:55;;;;;;;;;97.25;69.75;;;;;1.11;85.07;103048.34;5017781;28;46507;-66
2022/01/25 06:27:20;;;;;;;;;99.00;69.25;;;;;1.13;85.28;103073.31;5022441;28;45336;-65
2022/01/25 06:29:47;;;;;;;;;93.00;71.00;;;;;1.23;85.12;103065.97;5016556;28;45311;-66
2022/01/25 06:32:12;;;;;;;;;89.50;66.75;;;;;1.20;85.06;103069.59;5023873;28;45275;-66
2022/01/25 06:34:38;;;;;;;;;98.00;74.00;;;;;1.10;85.21;103058.19;5017222;28;45406;-66
2022/01/25 06:37:03;;;;;;;;;92.75;66.25;;;;;1.25;85.28;103056.97;5023031;28;45240;-66
2022/01/25 06:39:29;;;;;;;;;89.75;69.25;;;;;1.34;84.83;103062.16;5033403;28;45375;-66
2022/01/25 06:41:54;;;;;;;;;90.00;68.50;;;;;1.37;85.01;103062.09;5013797;28;45310;-65
2022/01/25 06:44:19;;;;;;;;;81.50;61.00;;;;;1.16;84.47;103054.53;5043515;28;46982;-65
2022/01/25 06:46:46;;;;;;;;;91.00;68.50;;;;;1.18;84.77;103055.34;5013420;28;45663;-65
2022/01/25 06:49:13;;;;;;;;;93.25;68.25;;;;;1.29;84.52;103049.78;5027690;28;45553;-65
2022/01/25 06:51:39;;;;;;;;;96.50;69.50;;;;;1.32;84.68;103052.38;5022355;28;45362;-65
2022/01/25 06:54:04;;;;;;;;;91.00;65.25;;;;;1.42;84.73;103052.16;5019550;28;46548;-65
2022/01/25 06:56:30;;;;;;;;;101.25;73.50;;;;;1.42;83.81;103044.13;5020469;28;45421;-66
2022/01/25 06:58:55;;;;;;;;;88.50;67.25;;;;;1.44;84.03;103058.38;5018663;28;45616;-66
2022/01/25 07:01:21;;;;;;;;;97.00;72.50;;;;;1.43;84.12;103051.25;5014627;28;45342;-65
2022/01/25 07:03:46;;;;;;;;;92.00;67.25;;;;;1.48;84.24;103053.81;5021413;28;46086;-65
2022/01/25 07:06:12;;;;;;;;;95.00;68.00;;;;;1.39;83.85;103038.81;5013893;28;45181;-65
2022/01/25 07:08:38;;;;;;;;;90.50;65.25;;;;;1.54;83.91;103065.25;5016884;28;45308;-65
2022/01/25 07:11:03;;;;;;;;;89.25;65.25;;;;;1.56;83.49;103062.56;5016392;28;45299;-66
2022/01/25 07:13:28;;;;;;;;;92.50;70.00;;;;;1.47;83.90;103062.75;5021860;28;46699;-65
2022/01/25 07:15:54;;;;;;;;;96.25;68.00;;;;;1.56;84.16;103066.13;5015078;28;45457;-66
2022/01/25 07:18:19;;;;;;;;;91.25;68.00;;;;;1.56;83.35;103067.91;5022925;28;45867;-66
2022/01/25 07:20:44;;;;;;;;;91.00;61.25;;;;;1.54;83.56;103064.38;5015451;28;45323;-66
2022/01/25 07:23:10;;;;;;;;;94.25;71.75;;;;;1.45;83.36;103060.13;5022203;28;46330;-66
2022/01/25 07:25:35;;;;;;;;;60.00;40.75;;;;;1.36;83.78;103060.34;5030694;28;45296;-66
2022/01/25 07:28:01;;;;;;;;;90.00;64.75;;;;;1.41;83.98;103065.56;5020294;28;45521;-66
2022/01/25 07:30:26;;;;;;;;;76.00;51.50;;;;;1.51;83.66;103076.06;5014431;28;45611;-65
2022/01/25 07:32:52;;;;;;;;;87.50;66.50;;;;;1.49;83.65;103051.09;5021495;28;45371;-65
2022/01/25 07:35:17;;;;;;;;;90.50;68.75;;;;;1.70;83.41;103073.84;5013922;28;45383;-67
2022/01/25 07:37:43;;;;;;;;;92.25;69.75;;;;;1.73;82.84;103081.81;5021797;28;45596;-65
2022/01/25 07:40:10;;;;;;;;;84.00;63.25;;;;;1.77;82.71;103078.16;5015853;28;45406;-66
2022/01/25 07:42:37;;;;;;;;;92.25;68.25;;;;;1.74;82.59;103082.72;5037168;28;47952;-66
2022/01/25 07:45:08;;;;;;;;;88.25;65.50;;;;;1.58;83.02;103086.66;5018018;28;45401;-66
2022/01/25 07:47:35;;;;;;;;;92.75;69.75;;;;;1.44;83.19;103089.63;5014057;28;45382;-66
2022/01/25 07:50:01;;;;;;;;;87.25;63.75;;;;;1.54;84.06;103092.06;5017180;28;45548;-66
2022/01/25 07:52:26;;;;;;;;;85.75;66.00;;;;;1.54;83.63;103096.53;5019153;28;45508;-66
2022/01/25 07:54:51;;;;;;;;;89.75;66.25;;;;;1.53;83.42;103100.16;5018614;28;45410;-67
2022/01/25 07:57:17;;;;;;;;;91.00;65.75;;;;;1.52;83.71;103091.22;5021243;28;45305;-66
2022/01/25 07:59:43;;;;;;;;;95.50;69.75;;;;;1.62;83.43;103099.94;5019957;28;45651;-67
2022/01/25 08:02:15;;;;;;;;;100.25;74.75;;;;;1.52;83.32;103099.28;5012614;28;48156;-67
2022/01/25 08:04:41;;;;;;;;;97.50;68.75;;;;;1.60;83.64;103098.22;5018346;28;45308;-66
2022/01/25 08:07:06;;;;;;;;;95.75;69.25;;;;;1.55;83.76;103099.19;5013265;28;45429;-66
2022/01/25 08:09:32;;;;;;;;;81.50;62.75;;;;;1.64;83.33;103103.47;5017423;28;45318;-66
2022/01/25 08:11:57;;;;;;;;;99.25;73.00;;;;;1.58;83.46;103094.69;5019404;28;48157;-67
2022/01/25 08:14:22;;;;;;;;;88.50;65.25;;;;;1.62;83.71;103107.97;5018562;28;45413;-66
2022/01/25 08:16:50;;;;;;;;;79.00;61.25;;;;;1.67;83.58;103107.88;5016679;28;45305;-67
2022/01/25 08:19:17;;;;;;;;;95.50;69.00;;;;;1.76;83.65;103104.97;5020508;28;45236;-65
2022/01/25 08:21:44;;;;;;;;;104.00;72.75;;;;;1.66;83.33;103108.78;5019042;28;45544;-66
2022/01/25 08:24:11;;;;;;;;;85.50;64.75;;;;;1.65;83.42;103110.59;5022944;28;45201;-66
2022/01/25 08:26:37;;;;;;;;;94.50;73.00;;;;;1.60;83.59;103107.13;5021515;28;45315;-66
2022/01/25 08:29:04;;;;;;;;;94.75;69.75;;;;;1.72;83.51;103112.22;5023434;28;45595;-66
2022/01/25 08:31:30;;;;;;;;;91.75;65.50;;;;;1.72;83.53;103109.53;5020154;28;45632;-68
2022/01/25 08:33:56;;;;;;;;;82.00;63.50;;;;;1.76;83.46;103113.91;5023493;28;45239;-68
2022/01/25 08:36:21;;;;;;;;;89.25;63.75;;;;;1.74;83.47;103120.22;5021135;28;45414;-66
2022/01/25 08:38:47;;;;;;;;;86.50;66.00;;;;;1.81;83.30;103116.50;5025036;28;45262;-67
2022/01/25 08:41:13;;;;;;;;;92.25;67.50;;;;;1.86;83.03;103117.25;5020089;28;45450;-66
2022/01/25 08:43:39;;;;;;;;;94.75;71.00;;;;;1.71;83.04;103113.13;5024809;28;45447;-66
2022/01/25 08:46:05;;;;;;;;;91.00;62.50;;;;;1.73;83.46;103111.31;5032896;28;45499;-67
2022/01/25 08:48:30;;;;;;;;;85.50;64.25;;;;;1.80;83.24;103104.00;5025305;28;45747;-67
2022/01/25 08:50:56;;;;;;;;;88.75;67.00;;;;;1.85;83.54;103107.44;5019674;28;45624;-66
2022/01/25 08:53:21;;;;;;;;;91.00;69.00;;;;;1.92;83.13;103109.97;5040033;28;45434;-67
2022/01/25 08:55:47;;;;;;;;;92.50;69.00;;;;;1.79;83.40;103112.97;5022272;28;45399;-66
2022/01/25 08:58:12;;;;;;;;;93.75;67.75;;;;;1.87;83.63;103116.34;5020038;28;45323;-67
2022/01/25 09:00:38;;;;;;;;;90.25;69.75;;;;;1.79;83.44;103107.59;5011650;28;45675;-67
2022/01/25 09:03:03;;;;;;;;;91.50;65.25;;;;;1.89;83.53;103114.53;5023024;28;45260;-67
2022/01/25 09:05:29;;;;;;;;;88.00;66.50;;;;;1.93;83.58;103121.56;5032189;28;45257;-67
2022/01/25 09:07:57;;;;;;;;;92.25;66.25;;;;;1.87;83.07;103119.03;5020384;28;45274;-66
2022/01/25 09:10:22;;;;;;;;;74.25;50.00;;;;;1.86;83.51;103119.94;5044825;28;46781;-66
2022/01/25 09:12:48;;;;;;;;;90.00;67.75;;;;;1.88;83.67;103112.75;5023648;28;45596;-66
2022/01/25 09:15:13;;;;;;;;;94.75;72.25;;;;;1.94;83.02;103105.44;5017085;28;45785;-66
2022/01/25 09:17:38;;;;;;;;;71.25;60.50;;;;;1.98;82.72;103114.28;5025519;28;45326;-67
2022/01/25 09:20:05;;;;;;;;;81.25;66.00;;;;;2.01;82.74;103114.22;5018469;28;46642;-67
2022/01/25 09:22:30;;;;;;;;;98.50;70.75;;;;;2.07;83.08;103123.91;5023257;28;45504;-66
2022/01/25 09:24:56;;;;;;;;;90.00;66.50;;;;;2.00;82.73;103128.53;5018243;28;46005;-67
2022/01/25 09:27:21;;;;;;;;;86.50;61.25;;;;;2.01;82.46;103133.00;5024885;28;45220;-67
2022/01/25 09:29:47;;;;;;;;;92.50;68.25;;;;;1.91;82.77;103131.44;5033074;28;47409;-67
2022/01/25 09:32:12;;;;;;;;;89.50;70.25;;;;;1.99;82.71;103133.94;5024483;28;45247;-66
2022/01/25 09:34:38;;;;;;;;;94.25;67.50;;;;;2.05;82.73;103140.03;5034177;28;45466;-67
2022/01/25 09:37:04;;;;;;;;;85.00;59.50;;;;;2.13;82.48;103140.75;5024414;28;45295;-66
2022/01/25 09:39:29;;;;;;;;;98.50;70.00;;;;;2.00;82.63;103141.94;5019828;28;47115;-67
2022/01/25 09:41:56;;;;;;;;;94.00;65.00;;;;;2.00;83.02;103141.06;5020427;28;45259;-66
2022/01/25 09:44:23;;;;;;;;;86.25;60.25;;;;;2.06;82.71;103149.84;5021402;28;45417;-66
2022/01/25 09:46:53;;;;;;;;;92.25;70.50;;;;;2.14;82.55;103141.63;5019253;28;47080;-67
2022/01/25 09:49:19;;;;;;;;;88.00;66.00;;;;;2.02;82.03;103147.28;5019590;28;46736;-67
2022/01/25 09:51:47;;;;;;;;;88.00;63.00;;;;;2.09;82.52;103141.75;5020794;28;45499;-67
2022/01/25 09:54:13;;;;;;;;;84.50;60.25;;;;;2.06;82.14;103146.28;5021999;28;45260;-67
2022/01/25 09:56:39;;;;;;;;;101.50;74.25;;;;;2.11;82.42;103149.75;5021359;28;46823;-66
2022/01/25 09:59:04;;;;;;;;;84.00;64.00;;;;;2.06;82.52;103144.50;5037288;28;47293;-66
2022/01/25 10:01:31;;;;;;;;;92.75;66.50;;;;;2.03;82.15;103149.94;5015086;28;45396;-67
2022/01/25 10:03:58;;;;;;;;;96.00;66.75;;;;;2.00;82.59;103150.00;5022605;28;45446;-67
2022/01/25 10:06:30;;;;;;;;;85.00;65.00;;;;;2.09;82.89;103157.84;5016913;28;45236;-67
2022/01/25 10:08:56;;;;;;;;;85.25;65.75;;;;;2.15;82.25;103148.75;5022578;28;45703;-67
2022/01/25 10:11:23;;;;;;;;;89.00;67.75;;;;;2.22;82.21;103142.34;5028672;28;45300;-67
2022/01/25 10:13:52;;;;;;;;;89.50;58.50;;;;;2.22;81.80;103145.91;5019860;28;45259;-67
2022/01/25 10:16:20;;;;;;;;;94.00;67.75;;;;;2.22;81.57;103155.75;5016635;28;45346;-67
2022/01/25 10:18:50;;;;;;;;;92.25;62.00;;;;;2.27;81.58;103153.81;5021683;28;47968;-67
2022/01/25 10:21:35;;;;;;;;;94.75;69.75;;;;;2.33;80.98;103153.69;5018554;28;45223;-66
2022/01/25 10:24:09;;;;;;;;;89.75;66.00;;;;;2.37;81.26;103159.84;5021895;28;45453;-66
2022/01/25 10:26:47;;;;;;;;;94.25;69.50;;;;;2.49;80.30;103159.53;5019569;28;45185;-66
2022/01/25 10:29:15;;;;;;;;;93.50;69.75;;;;;2.46;80.10;103157.84;5019953;28;45592;-67
2022/01/25 10:31:48;;;;;;;;;99.75;69.25;;;;;2.46;80.41;103159.63;5021240;28;45477;-66
2022/01/25 10:34:16;;;;;;;;;94.25;67.75;;;;;2.48;79.81;103166.75;5036509;28;45332;-67
2022/01/25 10:36:45;;;;;;;;;89.00;65.00;;;;;2.48;80.13;103165.88;5020298;28;45152;-64
2022/01/25 10:39:12;;;;;;;;;85.75;61.75;;;;;2.37;79.99;103166.09;5021052;28;45611;-66
2022/01/25 10:41:38;;;;;;;;;94.75;67.25;;;;;2.35;80.17;103168.81;5015729;28;45435;-66
2022/01/25 10:44:07;;;;;;;;;87.50;64.00;;;;;2.28;80.70;103169.00;5020628;28;45347;-68
2022/01/25 10:46:33;;;;;;;;;82.50;61.00;;;;;2.40;79.94;103170.53;5033037;28;45300;-67
2022/01/25 10:49:08;;;;;;;;;83.00;63.00;;;;;2.23;80.02;103169.13;5020420;28;46799;-67
2022/01/25 10:51:45;;;;;;;;;84.75;66.50;;;;;2.19;80.48;103166.56;5019294;28;45324;-67
2022/01/25 10:54:13;;;;;;;;;94.75;67.50;;;;;2.40;80.72;103160.69;5021763;28;46025;-67
2022/01/25 10:56:55;;;;;;;;;96.00;69.00;;;;;2.34;80.39;103160.81;5022488;28;45291;-67
2022/01/25 10:59:32;;;;;;;;;91.50;64.75;;;;;2.25;80.07;103156.56;5021073;28;45744;-67
2022/01/25 11:02:01;;;;;;;;;86.50;64.50;;;;;2.23;80.40;103160.19;5014759;28;45421;-67
2022/01/25 11:04:34;;;;;;;;;100.50;69.50;;;;;2.47;80.10;103156.03;5020973;28;45303;-66
2022/01/25 11:07:03;;;;;;;;;71.50;60.50;;;;;2.54;79.58;103157.66;5016407;28;45466;-66
2022/01/25 11:09:35;;;;;;;;;75.50;57.75;;;;;2.64;79.17;103154.69;5019265;28;45482;-65
2022/01/25 11:12:03;;;;;;;;;91.00;66.00;;;;;2.65;78.81;103156.44;5022087;28;45490;-66
2022/01/25 11:17:14;;;;;;;;;91.50;62.75;;;;;2.51;79.46;103152.34;5019277;28;45347;-65
2022/01/25 11:19:40;;;;;;;;;89.25;64.50;;;;;2.56;79.57;103159.34;5017254;28;46098;-64
2022/01/25 11:22:09;;;;;;;;;89.50;64.75;;;;;2.63;78.84;103152.06;5021942;28;45327;-65
2022/01/25 11:24:35;;;;;;;;;97.25;68.75;;;;;2.79;78.75;103157.88;5018105;28;45431;-65
2022/01/25 11:27:04;;;;;;;;;90.75;62.75;;;;;2.84;77.92;103156.88;5021711;28;45307;-65
2022/01/25 11:29:30;;;;;;;;;94.50;67.00;;;;;2.97;77.68;103161.00;5018688;28;45696;-65
2022/01/25 11:32:05;;;;;;;;;88.75;67.75;;;;;2.94;78.07;103155.69;5019835;28;45252;-65
2022/01/25 11:34:33;;;;;;;;;85.75;63.25;;;;;3.05;77.80;103150.94;5019117;28;45331;-65
2022/01/25 11:37:02;;;;;;;;;90.50;63.25;;;;;3.09;77.77;103147.22;5021942;28;45305;-66
2022/01/25 11:39:28;;;;;;;;;85.75;62.25;;;;;3.08;77.33;103153.50;5018260;28;47284;-66
2022/01/25 11:42:06;;;;;;;;;92.50;67.75;;;;;3.01;77.85;103156.41;5016085;28;45228;-66
2022/01/25 11:44:32;;;;;;;;;82.75;61.75;;;;;3.07;77.18;103150.84;5018374;28;45351;-67
2022/01/25 11:47:06;;;;;;;;;86.75;65.50;;;;;3.22;77.31;103150.44;5018915;28;45348;-67
2022/01/25 11:49:32;;;;;;;;;83.00;60.00;;;;;3.33;76.98;103151.03;5018747;28;47257;-66
2022/01/25 11:52:12;;;;;;;;;88.25;63.75;;;;;3.24;77.35;103147.72;5020443;28;45422;-66
2022/01/25 11:54:40;;;;;;;;;84.00;63.50;;;;;3.27;77.23;103150.31;5019021;28;46183;-66
2022/01/25 11:57:25;;;;;;;;;72.25;55.00;;;;;3.24;77.20;103145.03;5020341;28;45647;-66
2022/01/25 11:59:57;;;;;;;;;90.50;64.75;;;;;3.38;76.61;103137.47;5017703;28;47960;-66
2022/01/25 12:02:46;;;;;;;;;85.50;65.75;;;;;3.23;76.82;103144.16;5015743;28;45477;-66
2022/01/25 12:05:18;;;;;;;;;87.75;65.00;;;;;3.26;77.42;103145.88;5008083;28;45807;-66
2022/01/25 12:08:15;;;;;;;;;87.25;61.25;;;;;3.33;76.42;103140.28;5019812;28;45328;-66
2022/01/25 12:10:46;;;;;;;;;85.25;62.50;;;;;3.35;76.10;103142.94;5016112;28;45488;-66
2022/01/25 12:13:25;;;;;;;;;85.25;62.50;;;;;3.40;75.79;103141.00;5037578;28;45238;-66
2022/01/25 12:16:22;;;;;;;;;89.50;63.75;;;;;3.41;76.21;103137.38;5012657;28;45253;-66
2022/01/25 12:18:57;;;;;;;;;93.50;65.00;;;;;3.51;76.05;103129.00;5021551;28;45692;-66
2022/01/25 12:21:44;;;;;;;;;86.00;61.75;;;;;3.40;76.07;103135.63;5014834;28;45628;-66
2022/01/25 12:24:36;;;;;;;;;87.00;64.00;;;;;3.26;76.40;103132.44;5018742;28;45424;-66
2022/01/25 12:27:23;;;;;;;;;84.00;62.00;;;;;3.37;76.55;103124.94;5019325;28;45541;-66
2022/01/25 12:30:08;;;;;;;;;82.75;63.00;;;;;3.21;76.42;103119.16;5015515;28;45368;-66
2022/01/25 12:32:36;;;;;;;;;84.50;61.50;;;;;3.33;76.58;103101.78;5039893;28;47409;-66
2022/01/25 12:35:01;;;;;;;;;71.50;59.75;;;;;3.20;76.31;103112.00;5009296;28;45334;-66
2022/01/25 12:37:45;;;;;;;;;89.75;65.50;;;;;3.24;76.39;103113.69;5017476;28;45399;-66
2022/01/25 12:40:25;;;;;;;;;75.00;54.00;;;;;3.28;77.10;103115.38;5014402;28;45541;-66
2022/01/25 12:42:51;;;;;;;;;85.00;56.75;;;;;3.28;76.24;103109.09;5017752;28;45743;-66
2022/01/25 12:45:21;;;;;;;;;77.50;58.50;;;;;3.25;76.63;103106.50;5016147;28;45365;-66
2022/01/25 12:48:17;;;;;;;;;86.25;62.25;;;;;3.14;77.00;103118.41;5019023;28;45493;-67
2022/01/25 12:50:46;;;;;;;;;86.00;60.50;;;;;3.22;76.19;103106.56;5018190;28;45376;-67
2022/01/25 12:53:15;;;;;;;;;80.25;62.00;;;;;3.38;76.44;103091.78;5019918;28;45491;-66
2022/01/25 12:55:45;;;;;;;;;85.25;64.75;;;;;3.40;75.79;103090.81;5011770;28;45418;-66
2022/01/25 12:58:10;;;;;;;;;83.25;63.50;;;;;3.39;75.92;103097.13;5019707;28;45398;-67
2022/01/25 13:00:42;;;;;;;;;77.50;59.25;;;;;3.34;75.88;103103.56;5013192;28;45295;-67
2022/01/25 13:03:29;;;;;;;;;64.50;50.25;;;;;3.17;76.39;103093.28;5024956;28;46826;-66
2022/01/25 13:06:25;;;;;;;;;96.00;67.00;;;;;3.20;76.38;103105.75;5013055;28;45549;-66
2022/01/25 13:09:04;;;;;;;;;80.50;60.25;;;;;3.26;76.59;103105.56;5023268;28;45273;-67
2022/01/25 13:12:13;;;;;;;;;93.00;64.75;;;;;3.38;76.27;103083.72;5018994;28;45556;-67
2022/01/25 13:17:07;;;;;;;;;81.00;58.50;;;;;3.52;75.61;103081.50;5023741;28;45363;-67